sensor_id;sensor_type;location;lat;lon;timestamp;P1;durP1;ratioP1;P2;durP2;ratioP2
43626;SDS011;29217;52.586;13.442;2022-12-07T00:01:06;18.92;;;6.65;;
43626;SDS011;29217;52.586;13.442;2022-12-07T00:03:33;17.58;;;6.95;;
43626;SDS011;29217;52.586;13.442;2022-12-07T00:06:00;14.20;;;6.63;;
43626;SDS011;29217;52.586;13.442;2022-12-07T00:08:27;19.10;;;8.15;;
43626;SDS011;29217;52.586;13.442;2022-12-07T00:10:53;15.95;;;5.88;;
43626;SDS011;29217;52.586;13.442;2022-12-07T00:13:18;17.90;;;7.50;;
43626;SDS011;29217;52.586;13.442;2022-12-07T00:15:44;15.73;;;6.57;;
43626;SDS011;29217;52.586;13.442;2022-12-07T00:18:10;14.27;;;6.05;;
43626;SDS011;29217;52.586;13.442;2022-12-07T00:20:37;16.38;;;6.65;;
43626;SDS011;29217;52.586;13.442;2022-12-07T00:23:02;13.95;;;6.30;;
43626;SDS011;29217;52.586;13.442;2022-12-07T00:25:29;15.02;;;7.00;;
43626;SDS011;29217;52.586;13.442;2022-12-07T00:27:56;14.10;;;6.50;;
43626;SDS011;29217;52.586;13.442;2022-12-07T00:30:22;13.43;;;6.47;;
43626;SDS011;29217;52.586;13.442;2022-12-07T00:32:49;13.15;;;6.40;;
43626;SDS011;29217;52.586;13.442;2022-12-07T00:35:15;17.25;;;6.15;;
43626;SDS011;29217;52.586;13.442;2022-12-07T00:37:40;15.88;;;7.68;;
43626;SDS011;29217;52.586;13.442;2022-12-07T00:40:06;13.73;;;6.38;;
43626;SDS011;29217;52.586;13.442;2022-12-07T00:42:32;14.85;;;6.22;;
43626;SDS011;29217;52.586;13.442;2022-12-07T00:44:58;13.90;;;7.05;;
43626;SDS011;29217;52.586;13.442;2022-12-07T00:47:23;13.15;;;6.90;;
43626;SDS011;29217;52.586;13.442;2022-12-07T00:49:49;13.65;;;6.38;;
43626;SDS011;29217;52.586;13.442;2022-12-07T00:52:14;16.38;;;6.45;;
43626;SDS011;29217;52.586;13.442;2022-12-07T00:54:40;14.90;;;6.68;;
43626;SDS011;29217;52.586;13.442;2022-12-07T00:57:05;12.45;;;6.07;;
43626;SDS011;29217;52.586;13.442;2022-12-07T00:59:31;15.15;;;6.72;;
43626;SDS011;29217;52.586;13.442;2022-12-07T01:01:57;11.35;;;5.97;;
43626;SDS011;29217;52.586;13.442;2022-12-07T01:04:22;13.07;;;6.82;;
43626;SDS011;29217;52.586;13.442;2022-12-07T01:06:48;14.25;;;6.95;;
43626;SDS011;29217;52.586;13.442;2022-12-07T01:09:14;14.95;;;6.57;;
43626;SDS011;29217;52.586;13.442;2022-12-07T01:11:39;13.32;;;5.75;;
43626;SDS011;29217;52.586;13.442;2022-12-07T01:14:05;10.90;;;5.68;;
43626;SDS011;29217;52.586;13.442;2022-12-07T01:16:31;15.02;;;6.07;;
43626;SDS011;29217;52.586;13.442;2022-12-07T01:18:58;13.48;;;6.03;;
43626;SDS011;29217;52.586;13.442;2022-12-07T01:21:26;13.23;;;6.32;;
43626;SDS011;29217;52.586;13.442;2022-12-07T01:23:53;11.52;;;6.00;;
43626;SDS011;29217;52.586;13.442;2022-12-07T01:26:20;13.50;;;6.45;;
43626;SDS011;29217;52.586;13.442;2022-12-07T01:28:47;14.27;;;6.13;;
43626;SDS011;29217;52.586;13.442;2022-12-07T01:31:15;16.05;;;6.63;;
43626;SDS011;29217;52.586;13.442;2022-12-07T01:33:44;15.27;;;6.50;;
43626;SDS011;29217;52.586;13.442;2022-12-07T01:36:16;11.90;;;6.15;;
43626;SDS011;29217;52.586;13.442;2022-12-07T01:38:42;15.75;;;6.85;;
43626;SDS011;29217;52.586;13.442;2022-12-07T01:41:08;14.13;;;6.60;;
43626;SDS011;29217;52.586;13.442;2022-12-07T01:43:35;15.85;;;7.32;;
43626;SDS011;29217;52.586;13.442;2022-12-07T01:46:01;15.00;;;7.10;;
43626;SDS011;29217;52.586;13.442;2022-12-07T01:48:29;12.32;;;6.47;;
43626;SDS011;29217;52.586;13.442;2022-12-07T01:51:03;11.27;;;5.97;;
43626;SDS011;29217;52.586;13.442;2022-12-07T01:53:34;10.82;;;5.30;;
43626;SDS011;29217;52.586;13.442;2022-12-07T01:56:03;13.48;;;5.85;;
43626;SDS011;29217;52.586;13.442;2022-12-07T01:58:30;13.07;;;5.97;;
43626;SDS011;29217;52.586;13.442;2022-12-07T02:00:56;11.43;;;6.07;;
43626;SDS011;29217;52.586;13.442;2022-12-07T02:03:22;12.45;;;4.75;;
43626;SDS011;29217;52.586;13.442;2022-12-07T02:05:55;12.90;;;5.65;;
43626;SDS011;29217;52.586;13.442;2022-12-07T02:08:22;8.68;;;4.65;;
43626;SDS011;29217;52.586;13.442;2022-12-07T02:10:48;10.60;;;5.15;;
43626;SDS011;29217;52.586;13.442;2022-12-07T02:13:18;12.57;;;5.10;;
43626;SDS011;29217;52.586;13.442;2022-12-07T02:15:53;11.48;;;5.25;;
43626;SDS011;29217;52.586;13.442;2022-12-07T02:18:28;12.82;;;5.32;;
43626;SDS011;29217;52.586;13.442;2022-12-07T02:21:38;10.68;;;5.45;;
43626;SDS011;29217;52.586;13.442;2022-12-07T02:24:37;11.18;;;5.35;;
43626;SDS011;29217;52.586;13.442;2022-12-07T02:35:09;7.53;;;4.50;;
43626;SDS011;29217;52.586;13.442;2022-12-07T02:37:53;8.40;;;4.57;;
43626;SDS011;29217;52.586;13.442;2022-12-07T02:40:53;9.73;;;4.88;;
43626;SDS011;29217;52.586;13.442;2022-12-07T02:43:20;10.80;;;5.00;;
43626;SDS011;29217;52.586;13.442;2022-12-07T02:45:53;7.85;;;4.50;;
43626;SDS011;29217;52.586;13.442;2022-12-07T02:48:23;7.40;;;4.30;;
43626;SDS011;29217;52.586;13.442;2022-12-07T02:50:51;10.02;;;4.63;;
43626;SDS011;29217;52.586;13.442;2022-12-07T02:53:38;10.70;;;4.70;;
43626;SDS011;29217;52.586;13.442;2022-12-07T03:04:52;9.50;;;5.18;;
43626;SDS011;29217;52.586;13.442;2022-12-07T03:13:09;11.05;;;5.80;;
43626;SDS011;29217;52.586;13.442;2022-12-07T03:16:10;11.18;;;5.22;;
43626;SDS011;29217;52.586;13.442;2022-12-07T03:18:38;13.30;;;6.00;;
43626;SDS011;29217;52.586;13.442;2022-12-07T03:21:13;11.25;;;6.05;;
43626;SDS011;29217;52.586;13.442;2022-12-07T03:23:44;12.00;;;5.82;;
43626;SDS011;29217;52.586;13.442;2022-12-07T03:26:15;12.85;;;5.93;;
43626;SDS011;29217;52.586;13.442;2022-12-07T03:28:45;11.68;;;6.32;;
43626;SDS011;29217;52.586;13.442;2022-12-07T03:31:22;11.45;;;5.80;;
43626;SDS011;29217;52.586;13.442;2022-12-07T03:33:53;12.77;;;6.32;;
43626;SDS011;29217;52.586;13.442;2022-12-07T03:36:29;16.10;;;7.05;;
43626;SDS011;29217;52.586;13.442;2022-12-07T03:41:31;15.98;;;7.43;;
43626;SDS011;29217;52.586;13.442;2022-12-07T03:44:00;15.27;;;7.30;;
43626;SDS011;29217;52.586;13.442;2022-12-07T03:46:49;18.83;;;8.10;;
43626;SDS011;29217;52.586;13.442;2022-12-07T03:57:21;17.05;;;7.50;;
43626;SDS011;29217;52.586;13.442;2022-12-07T03:59:48;18.40;;;7.80;;
43626;SDS011;29217;52.586;13.442;2022-12-07T04:02:14;17.63;;;7.30;;
43626;SDS011;29217;52.586;13.442;2022-12-07T04:04:41;20.58;;;7.50;;
43626;SDS011;29217;52.586;13.442;2022-12-07T04:07:08;18.77;;;7.93;;
43626;SDS011;29217;52.586;13.442;2022-12-07T04:09:34;20.35;;;8.80;;
43626;SDS011;29217;52.586;13.442;2022-12-07T04:11:59;23.08;;;8.45;;
43626;SDS011;29217;52.586;13.442;2022-12-07T04:14:25;20.95;;;8.23;;
43626;SDS011;29217;52.586;13.442;2022-12-07T04:16:51;22.00;;;8.50;;
43626;SDS011;29217;52.586;13.442;2022-12-07T04:19:22;21.95;;;7.95;;
43626;SDS011;29217;52.586;13.442;2022-12-07T04:21:50;19.45;;;8.13;;
43626;SDS011;29217;52.586;13.442;2022-12-07T04:24:15;16.90;;;8.63;;
43626;SDS011;29217;52.586;13.442;2022-12-07T04:26:42;20.85;;;8.55;;
43626;SDS011;29217;52.586;13.442;2022-12-07T04:29:08;19.00;;;8.05;;
43626;SDS011;29217;52.586;13.442;2022-12-07T04:31:35;23.80;;;9.52;;
43626;SDS011;29217;52.586;13.442;2022-12-07T04:34:01;20.75;;;9.52;;
43626;SDS011;29217;52.586;13.442;2022-12-07T04:36:28;26.42;;;9.55;;
43626;SDS011;29217;52.586;13.442;2022-12-07T04:38:54;21.17;;;9.23;;
43626;SDS011;29217;52.586;13.442;2022-12-07T04:41:20;20.80;;;9.18;;
43626;SDS011;29217;52.586;13.442;2022-12-07T04:43:52;19.45;;;8.98;;
43626;SDS011;29217;52.586;13.442;2022-12-07T04:46:19;24.55;;;10.65;;
43626;SDS011;29217;52.586;13.442;2022-12-07T04:48:44;26.88;;;11.27;;
43626;SDS011;29217;52.586;13.442;2022-12-07T04:51:10;25.65;;;10.18;;
43626;SDS011;29217;52.586;13.442;2022-12-07T04:53:36;22.45;;;10.18;;
43626;SDS011;29217;52.586;13.442;2022-12-07T04:56:01;25.45;;;10.57;;
43626;SDS011;29217;52.586;13.442;2022-12-07T04:58:27;21.50;;;9.30;;
43626;SDS011;29217;52.586;13.442;2022-12-07T05:00:55;26.98;;;10.63;;
43626;SDS011;29217;52.586;13.442;2022-12-07T05:03:21;23.20;;;9.68;;
43626;SDS011;29217;52.586;13.442;2022-12-07T05:05:47;30.83;;;12.32;;
43626;SDS011;29217;52.586;13.442;2022-12-07T05:08:12;29.23;;;11.80;;
43626;SDS011;29217;52.586;13.442;2022-12-07T05:10:38;30.55;;;11.90;;
43626;SDS011;29217;52.586;13.442;2022-12-07T05:13:03;22.30;;;9.77;;
43626;SDS011;29217;52.586;13.442;2022-12-07T05:15:29;28.73;;;12.13;;
43626;SDS011;29217;52.586;13.442;2022-12-07T05:17:54;23.63;;;10.85;;
43626;SDS011;29217;52.586;13.442;2022-12-07T05:20:20;31.83;;;12.00;;
43626;SDS011;29217;52.586;13.442;2022-12-07T05:22:45;34.08;;;12.05;;
43626;SDS011;29217;52.586;13.442;2022-12-07T05:25:11;36.88;;;13.57;;
43626;SDS011;29217;52.586;13.442;2022-12-07T05:27:37;30.20;;;13.45;;
43626;SDS011;29217;52.586;13.442;2022-12-07T05:30:03;32.70;;;12.52;;
43626;SDS011;29217;52.586;13.442;2022-12-07T05:32:30;30.73;;;11.85;;
43626;SDS011;29217;52.586;13.442;2022-12-07T05:34:55;39.38;;;13.40;;
43626;SDS011;29217;52.586;13.442;2022-12-07T05:37:21;33.15;;;11.77;;
43626;SDS011;29217;52.586;13.442;2022-12-07T05:39:46;31.42;;;14.02;;
43626;SDS011;29217;52.586;13.442;2022-12-07T05:42:12;38.13;;;13.95;;
43626;SDS011;29217;52.586;13.442;2022-12-07T05:44:38;32.45;;;12.65;;
43626;SDS011;29217;52.586;13.442;2022-12-07T05:47:04;41.30;;;13.40;;
43626;SDS011;29217;52.586;13.442;2022-12-07T05:49:30;37.83;;;14.48;;
43626;SDS011;29217;52.586;13.442;2022-12-07T05:51:56;31.23;;;13.35;;
43626;SDS011;29217;52.586;13.442;2022-12-07T05:54:21;42.95;;;13.65;;
43626;SDS011;29217;52.586;13.442;2022-12-07T05:56:47;36.35;;;13.55;;
43626;SDS011;29217;52.586;13.442;2022-12-07T05:59:12;35.88;;;14.88;;
43626;SDS011;29217;52.586;13.442;2022-12-07T06:01:47;43.28;;;13.82;;
43626;SDS011;29217;52.586;13.442;2022-12-07T06:04:34;37.75;;;13.25;;
43626;SDS011;29217;52.586;13.442;2022-12-07T06:07:02;42.60;;;13.70;;
43626;SDS011;29217;52.586;13.442;2022-12-07T06:09:28;38.63;;;14.43;;
43626;SDS011;29217;52.586;13.442;2022-12-07T06:11:55;36.38;;;14.23;;
43626;SDS011;29217;52.586;13.442;2022-12-07T06:14:40;28.67;;;11.05;;
43626;SDS011;29217;52.586;13.442;2022-12-07T06:17:06;36.17;;;12.10;;
43626;SDS011;29217;52.586;13.442;2022-12-07T06:19:32;37.97;;;14.38;;
43626;SDS011;29217;52.586;13.442;2022-12-07T06:21:58;36.78;;;12.50;;
43626;SDS011;29217;52.586;13.442;2022-12-07T06:24:24;33.25;;;12.40;;
43626;SDS011;29217;52.586;13.442;2022-12-07T06:26:49;33.63;;;13.18;;
43626;SDS011;29217;52.586;13.442;2022-12-07T06:29:16;31.77;;;12.32;;
43626;SDS011;29217;52.586;13.442;2022-12-07T06:31:42;29.50;;;11.75;;
43626;SDS011;29217;52.586;13.442;2022-12-07T06:34:12;32.22;;;12.00;;
43626;SDS011;29217;52.586;13.442;2022-12-07T06:36:42;36.88;;;11.93;;
43626;SDS011;29217;52.586;13.442;2022-12-07T06:39:09;33.30;;;12.40;;
43626;SDS011;29217;52.586;13.442;2022-12-07T06:41:38;31.35;;;11.60;;
43626;SDS011;29217;52.586;13.442;2022-12-07T06:44:04;32.78;;;13.02;;
43626;SDS011;29217;52.586;13.442;2022-12-07T06:46:30;27.85;;;11.45;;
43626;SDS011;29217;52.586;13.442;2022-12-07T06:48:56;33.42;;;12.77;;
43626;SDS011;29217;52.586;13.442;2022-12-07T06:51:22;31.77;;;11.73;;
43626;SDS011;29217;52.586;13.442;2022-12-07T06:53:48;33.25;;;12.82;;
43626;SDS011;29217;52.586;13.442;2022-12-07T06:56:13;33.40;;;12.85;;
43626;SDS011;29217;52.586;13.442;2022-12-07T06:58:39;26.70;;;10.00;;
43626;SDS011;29217;52.586;13.442;2022-12-07T07:01:15;31.40;;;11.40;;
43626;SDS011;29217;52.586;13.442;2022-12-07T07:03:43;31.17;;;11.70;;
43626;SDS011;29217;52.586;13.442;2022-12-07T07:06:10;35.67;;;13.05;;
43626;SDS011;29217;52.586;13.442;2022-12-07T07:08:36;34.90;;;12.95;;
43626;SDS011;29217;52.586;13.442;2022-12-07T07:11:03;32.25;;;12.27;;
43626;SDS011;29217;52.586;13.442;2022-12-07T07:13:29;28.75;;;12.85;;
43626;SDS011;29217;52.586;13.442;2022-12-07T07:15:55;35.90;;;11.93;;
43626;SDS011;29217;52.586;13.442;2022-12-07T07:18:21;37.45;;;13.10;;
43626;SDS011;29217;52.586;13.442;2022-12-07T07:20:47;37.17;;;13.98;;
43626;SDS011;29217;52.586;13.442;2022-12-07T07:23:13;34.67;;;12.05;;
43626;SDS011;29217;52.586;13.442;2022-12-07T07:25:38;38.70;;;12.38;;
43626;SDS011;29217;52.586;13.442;2022-12-07T07:28:04;38.17;;;12.98;;
43626;SDS011;29217;52.586;13.442;2022-12-07T07:30:30;31.35;;;11.90;;
43626;SDS011;29217;52.586;13.442;2022-12-07T07:32:56;36.80;;;12.65;;
43626;SDS011;29217;52.586;13.442;2022-12-07T07:35:23;35.55;;;11.70;;
43626;SDS011;29217;52.586;13.442;2022-12-07T07:37:49;38.55;;;12.15;;
43626;SDS011;29217;52.586;13.442;2022-12-07T07:40:15;29.83;;;12.30;;
43626;SDS011;29217;52.586;13.442;2022-12-07T07:42:40;31.48;;;12.13;;
43626;SDS011;29217;52.586;13.442;2022-12-07T07:45:06;28.25;;;11.15;;
43626;SDS011;29217;52.586;13.442;2022-12-07T07:47:32;29.25;;;11.45;;
43626;SDS011;29217;52.586;13.442;2022-12-07T07:49:58;29.60;;;11.38;;
43626;SDS011;29217;52.586;13.442;2022-12-07T07:52:24;27.35;;;10.82;;
43626;SDS011;29217;52.586;13.442;2022-12-07T07:54:49;24.50;;;9.63;;
43626;SDS011;29217;52.586;13.442;2022-12-07T07:57:16;21.25;;;9.73;;
43626;SDS011;29217;52.586;13.442;2022-12-07T07:59:42;24.60;;;10.80;;
43626;SDS011;29217;52.586;13.442;2022-12-07T08:02:10;20.95;;;8.52;;
43626;SDS011;29217;52.586;13.442;2022-12-07T08:04:39;21.10;;;8.48;;
43626;SDS011;29217;52.586;13.442;2022-12-07T08:07:05;20.10;;;9.23;;
43626;SDS011;29217;52.586;13.442;2022-12-07T08:09:30;17.15;;;7.53;;
43626;SDS011;29217;52.586;13.442;2022-12-07T08:11:56;14.93;;;6.60;;
43626;SDS011;29217;52.586;13.442;2022-12-07T08:14:23;15.10;;;6.55;;
43626;SDS011;29217;52.586;13.442;2022-12-07T08:16:49;15.82;;;7.10;;
43626;SDS011;29217;52.586;13.442;2022-12-07T08:19:15;16.20;;;6.65;;
43626;SDS011;29217;52.586;13.442;2022-12-07T08:21:40;15.45;;;5.65;;
43626;SDS011;29217;52.586;13.442;2022-12-07T08:24:06;13.20;;;6.20;;
43626;SDS011;29217;52.586;13.442;2022-12-07T08:26:32;13.35;;;5.80;;
43626;SDS011;29217;52.586;13.442;2022-12-07T08:28:57;11.43;;;5.15;;
43626;SDS011;29217;52.586;13.442;2022-12-07T08:31:23;10.80;;;5.20;;
43626;SDS011;29217;52.586;13.442;2022-12-07T08:33:48;11.50;;;4.80;;
43626;SDS011;29217;52.586;13.442;2022-12-07T08:36:14;10.65;;;4.80;;
43626;SDS011;29217;52.586;13.442;2022-12-07T08:38:41;12.77;;;4.85;;
43626;SDS011;29217;52.586;13.442;2022-12-07T08:41:06;8.20;;;4.72;;
43626;SDS011;29217;52.586;13.442;2022-12-07T08:43:32;10.13;;;4.43;;
43626;SDS011;29217;52.586;13.442;2022-12-07T08:49:06;8.88;;;4.88;;
43626;SDS011;29217;52.586;13.442;2022-12-07T08:51:34;11.70;;;4.63;;
43626;SDS011;29217;52.586;13.442;2022-12-07T08:54:00;9.40;;;4.53;;
43626;SDS011;29217;52.586;13.442;2022-12-07T08:56:31;9.98;;;4.15;;
43626;SDS011;29217;52.586;13.442;2022-12-07T08:58:57;9.43;;;4.80;;
43626;SDS011;29217;52.586;13.442;2022-12-07T09:01:23;7.63;;;4.30;;
43626;SDS011;29217;52.586;13.442;2022-12-07T09:03:48;7.95;;;4.13;;
43626;SDS011;29217;52.586;13.442;2022-12-07T09:06:14;5.20;;;3.25;;
43626;SDS011;29217;52.586;13.442;2022-12-07T09:08:40;4.85;;;3.17;;
43626;SDS011;29217;52.586;13.442;2022-12-07T09:11:09;6.85;;;3.78;;
43626;SDS011;29217;52.586;13.442;2022-12-07T09:13:34;5.35;;;3.70;;
43626;SDS011;29217;52.586;13.442;2022-12-07T09:16:00;4.47;;;3.40;;
43626;SDS011;29217;52.586;13.442;2022-12-07T09:18:25;6.97;;;3.83;;
43626;SDS011;29217;52.586;13.442;2022-12-07T09:20:51;6.25;;;3.83;;
43626;SDS011;29217;52.586;13.442;2022-12-07T09:23:17;4.40;;;3.05;;
43626;SDS011;29217;52.586;13.442;2022-12-07T09:25:42;5.15;;;2.85;;
43626;SDS011;29217;52.586;13.442;2022-12-07T09:28:08;8.70;;;3.45;;
43626;SDS011;29217;52.586;13.442;2022-12-07T09:30:33;3.95;;;2.58;;
43626;SDS011;29217;52.586;13.442;2022-12-07T09:32:59;4.28;;;2.10;;
43626;SDS011;29217;52.586;13.442;2022-12-07T09:35:25;3.50;;;2.30;;
43626;SDS011;29217;52.586;13.442;2022-12-07T09:37:51;2.95;;;2.05;;
43626;SDS011;29217;52.586;13.442;2022-12-07T09:40:18;4.45;;;2.20;;
43626;SDS011;29217;52.586;13.442;2022-12-07T09:42:47;5.18;;;2.53;;
43626;SDS011;29217;52.586;13.442;2022-12-07T09:45:21;3.55;;;2.45;;
43626;SDS011;29217;52.586;13.442;2022-12-07T09:47:55;3.20;;;2.13;;
43626;SDS011;29217;52.586;13.442;2022-12-07T09:50:21;6.35;;;2.55;;
43626;SDS011;29217;52.586;13.442;2022-12-07T09:52:50;5.90;;;2.97;;
43626;SDS011;29217;52.586;13.442;2022-12-07T09:55:21;4.47;;;2.58;;
43626;SDS011;29217;52.586;13.442;2022-12-07T09:57:53;4.10;;;2.28;;
43626;SDS011;29217;52.586;13.442;2022-12-07T10:00:21;5.22;;;2.85;;
43626;SDS011;29217;52.586;13.442;2022-12-07T10:05:28;2.95;;;2.13;;
43626;SDS011;29217;52.586;13.442;2022-12-07T10:08:15;4.30;;;2.45;;
43626;SDS011;29217;52.586;13.442;2022-12-07T10:10:42;3.97;;;2.40;;
43626;SDS011;29217;52.586;13.442;2022-12-07T10:13:10;2.97;;;2.45;;
43626;SDS011;29217;52.586;13.442;2022-12-07T10:15:53;3.88;;;2.35;;
43626;SDS011;29217;52.586;13.442;2022-12-07T10:23:42;2.10;;;1.77;;
43626;SDS011;29217;52.586;13.442;2022-12-07T10:26:31;2.53;;;1.98;;
43626;SDS011;29217;52.586;13.442;2022-12-07T10:29:01;3.17;;;1.85;;
43626;SDS011;29217;52.586;13.442;2022-12-07T10:31:45;2.13;;;1.73;;
43626;SDS011;29217;52.586;13.442;2022-12-07T10:34:37;2.88;;;2.05;;
43626;SDS011;29217;52.586;13.442;2022-12-07T10:39:44;4.32;;;2.55;;
43626;SDS011;29217;52.586;13.442;2022-12-07T10:44:45;2.63;;;1.90;;
43626;SDS011;29217;52.586;13.442;2022-12-07T10:53:03;3.20;;;2.22;;
43626;SDS011;29217;52.586;13.442;2022-12-07T10:55:40;3.03;;;2.05;;
43626;SDS011;29217;52.586;13.442;2022-12-07T10:58:37;2.80;;;2.22;;
43626;SDS011;29217;52.586;13.442;2022-12-07T11:01:31;3.90;;;2.33;;
43626;SDS011;29217;52.586;13.442;2022-12-07T11:09:59;4.35;;;2.83;;
43626;SDS011;29217;52.586;13.442;2022-12-07T11:15:33;3.55;;;2.60;;
43626;SDS011;29217;52.586;13.442;2022-12-07T11:24:25;5.15;;;3.20;;
43626;SDS011;29217;52.586;13.442;2022-12-07T11:27:00;6.72;;;3.13;;
43626;SDS011;29217;52.586;13.442;2022-12-07T11:35:11;10.10;;;3.58;;
43626;SDS011;29217;52.586;13.442;2022-12-07T11:37:59;4.38;;;2.90;;
43626;SDS011;29217;52.586;13.442;2022-12-07T11:40:35;7.50;;;3.53;;
43626;SDS011;29217;52.586;13.442;2022-12-07T11:45:46;6.25;;;3.63;;
43626;SDS011;29217;52.586;13.442;2022-12-07T11:48:19;4.88;;;3.10;;
43626;SDS011;29217;52.586;13.442;2022-12-07T11:50:51;9.55;;;3.30;;
43626;SDS011;29217;52.586;13.442;2022-12-07T11:53:21;4.28;;;2.97;;
43626;SDS011;29217;52.586;13.442;2022-12-07T12:07:19;5.63;;;3.40;;
43626;SDS011;29217;52.586;13.442;2022-12-07T12:09:51;5.80;;;3.40;;
43626;SDS011;29217;52.586;13.442;2022-12-07T12:14:54;6.32;;;3.47;;
43626;SDS011;29217;52.586;13.442;2022-12-07T12:20:26;7.13;;;3.58;;
43626;SDS011;29217;52.586;13.442;2022-12-07T12:25:49;9.20;;;3.30;;
43626;SDS011;29217;52.586;13.442;2022-12-07T12:33:46;7.88;;;2.80;;
43626;SDS011;29217;52.586;13.442;2022-12-07T12:47:02;10.07;;;3.20;;
43626;SDS011;29217;52.586;13.442;2022-12-07T12:52:27;10.18;;;3.72;;
43626;SDS011;29217;52.586;13.442;2022-12-07T12:54:59;6.63;;;3.75;;
43626;SDS011;29217;52.586;13.442;2022-12-07T12:57:36;6.65;;;2.80;;
43626;SDS011;29217;52.586;13.442;2022-12-07T13:02:54;3.67;;;2.58;;
43626;SDS011;29217;52.586;13.442;2022-12-07T13:05:28;8.63;;;3.45;;
43626;SDS011;29217;52.586;13.442;2022-12-07T13:07:56;4.22;;;2.95;;
43626;SDS011;29217;52.586;13.442;2022-12-07T13:15:40;7.03;;;2.42;;
43626;SDS011;29217;52.586;13.442;2022-12-07T13:20:54;7.68;;;2.60;;
43626;SDS011;29217;52.586;13.442;2022-12-07T13:25:59;6.03;;;2.85;;
43626;SDS011;29217;52.586;13.442;2022-12-07T13:28:37;5.72;;;2.55;;
43626;SDS011;29217;52.586;13.442;2022-12-07T13:33:34;5.05;;;2.55;;
43626;SDS011;29217;52.586;13.442;2022-12-07T13:36:00;6.13;;;2.47;;
43626;SDS011;29217;52.586;13.442;2022-12-07T13:38:27;2.85;;;2.13;;
43626;SDS011;29217;52.586;13.442;2022-12-07T13:46:14;13.20;;;3.13;;
43626;SDS011;29217;52.586;13.442;2022-12-07T13:48:51;9.52;;;2.50;;
43626;SDS011;29217;52.586;13.442;2022-12-07T13:51:26;5.18;;;2.42;;
43626;SDS011;29217;52.586;13.442;2022-12-07T13:53:59;5.50;;;2.40;;
43626;SDS011;29217;52.586;13.442;2022-12-07T13:56:28;12.00;;;2.40;;
43626;SDS011;29217;52.586;13.442;2022-12-07T13:58:58;6.55;;;2.53;;
43626;SDS011;29217;52.586;13.442;2022-12-07T14:01:24;5.57;;;1.83;;
43626;SDS011;29217;52.586;13.442;2022-12-07T14:03:50;5.20;;;2.22;;
43626;SDS011;29217;52.586;13.442;2022-12-07T14:08:46;5.75;;;2.30;;
43626;SDS011;29217;52.586;13.442;2022-12-07T14:11:13;3.75;;;2.13;;
43626;SDS011;29217;52.586;13.442;2022-12-07T14:18:56;3.28;;;2.13;;
43626;SDS011;29217;52.586;13.442;2022-12-07T14:21:27;2.97;;;1.73;;
43626;SDS011;29217;52.586;13.442;2022-12-07T14:26:35;2.92;;;2.08;;
43626;SDS011;29217;52.586;13.442;2022-12-07T14:31:56;6.10;;;2.08;;
43626;SDS011;29217;52.586;13.442;2022-12-07T14:34:23;5.13;;;2.45;;
43626;SDS011;29217;52.586;13.442;2022-12-07T14:36:50;1.90;;;1.67;;
43626;SDS011;29217;52.586;13.442;2022-12-07T14:39:15;4.35;;;2.00;;
43626;SDS011;29217;52.586;13.442;2022-12-07T14:41:41;4.70;;;2.28;;
43626;SDS011;29217;52.586;13.442;2022-12-07T14:44:16;6.32;;;2.40;;
43626;SDS011;29217;52.586;13.442;2022-12-07T14:46:49;4.95;;;2.28;;
43626;SDS011;29217;52.586;13.442;2022-12-07T14:49:15;3.45;;;1.90;;
43626;SDS011;29217;52.586;13.442;2022-12-07T14:51:41;6.10;;;1.98;;
43626;SDS011;29217;52.586;13.442;2022-12-07T14:54:12;15.90;;;2.30;;
43626;SDS011;29217;52.586;13.442;2022-12-07T14:56:44;3.78;;;2.30;;
43626;SDS011;29217;52.586;13.442;2022-12-07T14:59:10;6.25;;;2.70;;
43626;SDS011;29217;52.586;13.442;2022-12-07T15:01:37;6.85;;;2.97;;
43626;SDS011;29217;52.586;13.442;2022-12-07T15:04:03;5.40;;;2.97;;
43626;SDS011;29217;52.586;13.442;2022-12-07T15:06:28;7.97;;;2.83;;
43626;SDS011;29217;52.586;13.442;2022-12-07T15:08:54;14.27;;;4.93;;
43626;SDS011;29217;52.586;13.442;2022-12-07T15:11:20;10.32;;;3.55;;
43626;SDS011;29217;52.586;13.442;2022-12-07T15:13:46;4.95;;;2.58;;
43626;SDS011;29217;52.586;13.442;2022-12-07T15:16:30;5.13;;;2.85;;
43626;SDS011;29217;52.586;13.442;2022-12-07T15:18:56;10.93;;;3.67;;
43626;SDS011;29217;52.586;13.442;2022-12-07T15:21:21;6.60;;;3.17;;
43626;SDS011;29217;52.586;13.442;2022-12-07T15:23:47;10.27;;;3.07;;
43626;SDS011;29217;52.586;13.442;2022-12-07T15:26:13;8.23;;;3.08;;
43626;SDS011;29217;52.586;13.442;2022-12-07T15:28:39;4.50;;;2.80;;
43626;SDS011;29217;52.586;13.442;2022-12-07T15:31:11;9.25;;;3.10;;
43626;SDS011;29217;52.586;13.442;2022-12-07T15:33:37;7.10;;;3.17;;
43626;SDS011;29217;52.586;13.442;2022-12-07T15:36:03;6.72;;;2.40;;
43626;SDS011;29217;52.586;13.442;2022-12-07T15:38:28;4.82;;;2.22;;
43626;SDS011;29217;52.586;13.442;2022-12-07T15:40:55;6.78;;;2.20;;
43626;SDS011;29217;52.586;13.442;2022-12-07T15:43:21;8.60;;;2.88;;
43626;SDS011;29217;52.586;13.442;2022-12-07T15:46:05;14.40;;;3.67;;
43626;SDS011;29217;52.586;13.442;2022-12-07T15:48:31;6.72;;;2.45;;
43626;SDS011;29217;52.586;13.442;2022-12-07T15:51:04;6.40;;;2.90;;
43626;SDS011;29217;52.586;13.442;2022-12-07T15:53:31;8.55;;;3.15;;
43626;SDS011;29217;52.586;13.442;2022-12-07T15:55:57;5.65;;;2.65;;
43626;SDS011;29217;52.586;13.442;2022-12-07T15:58:22;7.03;;;2.92;;
43626;SDS011;29217;52.586;13.442;2022-12-07T16:00:48;5.82;;;3.45;;
43626;SDS011;29217;52.586;13.442;2022-12-07T16:03:13;5.60;;;2.83;;
43626;SDS011;29217;52.586;13.442;2022-12-07T16:05:39;7.03;;;2.35;;
43626;SDS011;29217;52.586;13.442;2022-12-07T16:08:05;7.93;;;2.15;;
43626;SDS011;29217;52.586;13.442;2022-12-07T16:10:30;5.88;;;1.92;;
43626;SDS011;29217;52.586;13.442;2022-12-07T16:12:56;3.08;;;1.85;;
43626;SDS011;29217;52.586;13.442;2022-12-07T16:15:21;3.03;;;1.75;;
43626;SDS011;29217;52.586;13.442;2022-12-07T16:17:49;3.28;;;1.70;;
43626;SDS011;29217;52.586;13.442;2022-12-07T16:20:15;7.38;;;1.55;;
43626;SDS011;29217;52.586;13.442;2022-12-07T16:22:41;2.38;;;1.83;;
43626;SDS011;29217;52.586;13.442;2022-12-07T16:25:07;3.17;;;1.83;;
43626;SDS011;29217;52.586;13.442;2022-12-07T16:27:32;2.75;;;1.90;;
43626;SDS011;29217;52.586;13.442;2022-12-07T16:29:59;3.35;;;1.90;;
43626;SDS011;29217;52.586;13.442;2022-12-07T16:32:24;8.32;;;2.65;;
43626;SDS011;29217;52.586;13.442;2022-12-07T16:34:50;10.57;;;2.78;;
43626;SDS011;29217;52.586;13.442;2022-12-07T16:37:15;6.35;;;2.15;;
43626;SDS011;29217;52.586;13.442;2022-12-07T16:39:41;10.95;;;2.13;;
43626;SDS011;29217;52.586;13.442;2022-12-07T16:42:06;7.70;;;2.45;;
43626;SDS011;29217;52.586;13.442;2022-12-07T16:44:32;7.32;;;2.20;;
43626;SDS011;29217;52.586;13.442;2022-12-07T16:46:57;4.28;;;2.40;;
43626;SDS011;29217;52.586;13.442;2022-12-07T16:49:23;4.18;;;2.60;;
43626;SDS011;29217;52.586;13.442;2022-12-07T16:51:49;5.38;;;2.33;;
43626;SDS011;29217;52.586;13.442;2022-12-07T16:54:15;6.43;;;2.97;;
43626;SDS011;29217;52.586;13.442;2022-12-07T16:56:41;4.93;;;2.25;;
43626;SDS011;29217;52.586;13.442;2022-12-07T16:59:07;5.38;;;2.17;;
43626;SDS011;29217;52.586;13.442;2022-12-07T17:01:33;6.25;;;2.28;;
43626;SDS011;29217;52.586;13.442;2022-12-07T17:03:59;3.45;;;1.80;;